Flight Track Log - Related Links

Times and Time Zones

All times are in EDT time to prevent confusion due to time zone crossing. See the AAL408 flight status page for this flight to view local times or setup timezone preferences in your user account.


Time Position Orientation Groundspeed Altitude Reporting Facility
EDT Latitude Longitude Course Direction KTS MPH feet Rate Location/Type
Thu 07:38:43 PM 41.9167 -87.9333 84° East 210 242 3,000  Level Chicago TRACON
Thu 07:39:43 PM 41.8914 -87.8703 118° Southeast 232 267 4,700 984 Climbing Chicago Center
Thu 07:40:00 PM 41.9536 -87.4069 95° East  Level FlightAware Approximate
Thu 07:40:45 PM 41.8981 -87.7431 86° East 271 312 5,000  Level Chicago Center
Thu 07:41:00 PM 41.9418 -87.2431 96° East  Level FlightAware Approximate
Thu 07:41:47 PM 41.9042 -87.6383 85° East 279 321 5,500  Level Chicago Center
Thu 07:42:00 PM 41.9333 -87.0792 90° East  Level FlightAware Approximate
Thu 07:42:49 PM 41.9119 -87.5319 84° East 286 329 8,500  Level Chicago Center
Thu 07:43:00 PM 41.9335 -86.9146 84° East  Level FlightAware Approximate
Thu 07:43:51 PM 41.9192 -87.4211 85° East 295 339 11,300  Level Chicago Center
Thu 07:44:53 PM 41.9269 -87.3044 85° East 307 353 13,700 1,839 Climbing Chicago Center
Thu 07:45:55 PM 41.9397 -87.1425 84° East 363 418 15,100 1,403 Climbing Chicago Center
Thu 07:46:57 PM 41.9461 -86.9867 87° East 408 470 16,600 1,694 Climbing Chicago Center
Thu 07:47:59 PM 41.9481 -86.8192 89° East 439 505 18,600 2,032 Climbing Chicago Center
Thu 07:49:01 PM 41.9506 -86.6389 89° East 457 526 20,800 1,839 Climbing Chicago Center
Thu 07:50:03 PM 41.9519 -86.4633 89° East 467 537 22,400 1,584 Climbing Chicago Center
Thu 07:51:06 PM 41.9547 -86.2808 89° East 484 557 24,100 1,952 Climbing Chicago Center
Thu 07:52:09 PM 41.9461 -86.0989 94° East 487 560 26,500 2,081 Climbing Chicago Center
Thu 07:53:10 PM 41.9289 -85.9236 97° East 478 550 28,400 2,146 Climbing Chicago Center
Thu 07:54:12 PM 41.9100 -85.7153 97° East 470 541 30,900 1,790 Climbing Chicago Center
Thu 07:55:14 PM 41.8944 -85.5481 97° East 454 522 32,100 1,016 Climbing Chicago Center
Thu 07:56:16 PM 41.8789 -85.3775 97° East 454 522 33,000 435 Climbing Chicago Center
Thu 07:57:18 PM 41.8614 -85.2067 98° East 456 525 33,000  Level Chicago Center
Thu 07:58:20 PM 41.8439 -85.0364 98° East 456 525 33,000 48 Level Chicago Center
Thu 07:59:22 PM 41.8269 -84.8683 98° East 457 526 33,100 484 Climbing Chicago Center
Thu 08:00:24 PM 41.8081 -84.6983 98° East 459 528 34,000 900 Climbing Chicago Center
Thu 08:01:22 PM 41.7919 -84.5300 97° East 451 519 34,900 508 Climbing Cleveland Center
Thu 08:02:22 PM 41.7786 -84.3675 96° East 446 513 35,000 50 Climbing Cleveland Center
Thu 08:03:22 PM 41.7386 -84.1897 107° East 451 519 35,000  Level Cleveland Center
Thu 08:04:22 PM 41.7039 -84.0264 106° East 456 525 35,000  Level Cleveland Center
Thu 08:05:22 PM 41.6711 -83.8664 105° East 456 525 35,000  Level Cleveland Center
Thu 08:06:22 PM 41.6361 -83.7006 106° East 456 525 35,000  Level Cleveland Center
Thu 08:07:22 PM 41.5986 -83.5406 107° East 456 525 35,000  Level Cleveland Center
Thu 08:08:22 PM 41.5672 -83.3808 105° East 456 525 35,000  Level Cleveland Center
Thu 08:09:22 PM 41.5314 -83.2211 107° East 456 525 35,000  Level Cleveland Center
Thu 08:10:22 PM 41.4992 -83.0756 106° East 450 518 35,000  Level Cleveland Center
Thu 08:11:22 PM 41.4653 -82.9108 105° East 457 526 35,000  Level Cleveland Center
Thu 08:12:22 PM 41.4286 -82.7517 107° East 452 520 35,000  Level Cleveland Center
Thu 08:13:22 PM 41.3881 -82.5731 107° East 452 520 35,000  Level Cleveland Center
Thu 08:14:22 PM 41.3511 -82.4117 107° East 452 520 35,000  Level Cleveland Center
Thu 08:15:22 PM 41.3142 -82.2528 107° East 452 520 35,000  Level Cleveland Center
Thu 08:16:22 PM 41.2789 -82.0861 106° East 457 526 35,000  Level Cleveland Center
Thu 08:17:22 PM 41.2433 -81.9225 106° East 462 532 35,000  Level Cleveland Center
Thu 08:18:22 PM 41.2033 -81.7617 108° East 462 532 35,000  Level Cleveland Center
Thu 08:19:22 PM 41.1653 -81.6008 107° East 462 532 35,000  Level Cleveland Center
Thu 08:20:22 PM 41.1231 -81.4375 109° East 462 532 35,000  Level Cleveland Center
Thu 08:21:22 PM 41.0822 -81.2744 108° East 470 541 35,000  Level Cleveland Center
Thu 08:23:22 PM 41.0131 -80.9683 107° East 460 529 35,000  Level Cleveland Center
Thu 08:24:22 PM 40.9736 -80.8058 108° East 460 529 35,000  Level Cleveland Center
Thu 08:25:22 PM 40.9322 -80.6408 108° East 460 529 35,000  Level Cleveland Center
Thu 08:26:22 PM 40.8925 -80.4789 108° East 460 529 35,000  Level Cleveland Center
Thu 08:27:22 PM 40.8506 -80.3197 109° East 460 529 35,000  Level Cleveland Center
Thu 08:28:22 PM 40.8044 -80.1606 111° Southeast 460 529 35,000  Level Cleveland Center
Thu 08:29:22 PM 40.7494 -80.0075 115° Southeast 466 536 35,000  Level Cleveland Center
Thu 08:30:22 PM 40.6944 -79.8492 115° Southeast 466 536 35,000  Level Cleveland Center
Thu 08:31:22 PM 40.6392 -79.6967 115° Southeast 466 536 35,000  Level Cleveland Center
Thu 08:32:22 PM 40.5814 -79.5417 116° Southeast 466 536 35,000  Level Cleveland Center
Thu 08:33:22 PM 40.5486 -79.3753 104° East 466 536 35,000  Level Cleveland Center
Thu 08:34:22 PM 40.5281 -79.2119 99° East 461 531 35,000  Level Cleveland Center
Thu 08:35:22 PM 40.5108 -79.0211 97° East 468 539 35,000  Level Cleveland Center
Thu 08:36:22 PM 40.4939 -78.8550 98° East 468 539 35,000  Level Cleveland Center
Thu 08:37:22 PM 40.4786 -78.6806 97° East 468 539 35,000 -500 Level Cleveland Center
Thu 08:38:22 PM 40.4589 -78.5092 99° East 468 539 34,000 -1,756 Descending Cleveland Center
Thu 08:39:25 PM 40.4403 -78.3339 98° East 462 532 31,400 -3,048 Descending New York Center
Thu 08:40:26 PM 40.4242 -78.1603 97° East 486 559 27,700 -3,150 Descending New York Center
Thu 08:41:25 PM 40.4047 -78.0028 99° East 486 559 25,100 -1,438 Descending New York Center
Thu 08:42:27 PM 40.3819 -77.8286 100° East 486 559 24,800 -1,000 Descending New York Center
Thu 08:43:25 PM 40.3589 -77.6519 100° East 491 565 23,100 -1,525 Descending New York Center
Thu 08:44:25 PM 40.3356 -77.4806 100° East 486 559 21,800 -1,339 Descending New York Center
Thu 08:45:26 PM 40.3117 -77.3094 100° East 486 559 20,400 -1,377 Descending New York Center
Thu 08:46:27 PM 40.2861 -77.1300 101° East 466 536 19,000 -694 Descending New York Center
Thu 08:47:27 PM 40.2661 -76.9978 101° East 433 498 19,000 -508 Level New York Center
Thu 08:48:25 PM 40.2469 -76.8464 99° East 425 489 18,000 -1,500 Descending New York Center
Thu 08:49:27 PM 40.2231 -76.7000 102° East 412 474 16,000 -2,150 Descending New York Center
Thu 08:50:25 PM 40.2017 -76.5433 100° East 395 455 13,700 -2,136 Descending New York Center
Thu 08:51:25 PM 40.1831 -76.4086 100° East 383 441 11,800 -1,350 Descending New York Center
Thu 08:52:25 PM 40.1619 -76.2819 102° East 369 425 11,000 -545 Descending New York Center
Thu 08:53:26 PM 40.1461 -76.1719 101° East 352 405 10,700 -793 Descending New York Center
Thu 08:54:26 PM 40.1306 -76.0542 100° East 308 354 9,400 -1,289 Descending New York Center
Thu 08:55:27 PM 40.1144 -75.9525 102° East 289 333 8,100 -706 Descending New York Center
Thu 08:56:25 PM 40.0958 -75.8506 103° East 283 326 8,000 -51 Descending New York Center
Thu 08:57:25 PM 40.0794 -75.7489 102° East 283 326 8,000  Level New York Center
Thu 08:58:26 PM 40.0753 -75.6456 93° East 278 320 8,000 -50 Level New York Center
Thu 08:59:24 PM 40.0692 -75.5422 94° East 283 326 7,900 -504 Descending New York Center
Thu 09:00:25 PM 40.0664 -75.4525 92° East 283 326 7,000 -942 Descending New York Center
Thu 09:01:25 PM 40.0606 -75.3408 94° East 278 320 6,000 -793 Descending New York Center
Thu 09:02:26 PM 40.0453 -75.2450 102° East 273 314 5,400 -934 Descending New York Center
Thu 09:03:27 PM 40.0233 -75.1622 109° East 273 314 4,100 -1,289 Descending New York Center
Thu 09:04:27 PM 39.9869 -75.0814 120° Southeast 255 293 2,800 -1,277 Descending New York Center
Thu 09:05:01 PM 39.9500 -75.0833 182° South 192 221 2,100 -1,235 Descending Philadelphia TRACON

Login

Don't have an account? Register now (free) for customized features, flight alerts, and more!